sensor_id;sensor_type;location;lat;lon;timestamp;pressure;altitude;pressure_sealevel;temperature;humidity
14269;BME280;7218;51.480;7.006;2022-07-29T00:01:14;100888.44;;;23.03;44.13
14269;BME280;7218;51.480;7.006;2022-07-29T00:03:41;100887.78;;;22.99;44.17
14269;BME280;7218;51.480;7.006;2022-07-29T00:06:08;100887.97;;;22.96;43.64
14269;BME280;7218;51.480;7.006;2022-07-29T00:08:35;100898.69;;;22.95;44.83
14269;BME280;7218;51.480;7.006;2022-07-29T00:11:02;100889.00;;;23.08;44.11
14269;BME280;7218;51.480;7.006;2022-07-29T00:13:28;100890.63;;;23.10;43.75
14269;BME280;7218;51.480;7.006;2022-07-29T00:15:55;100886.25;;;23.09;43.58
14269;BME280;7218;51.480;7.006;2022-07-29T00:18:21;100880.66;;;23.14;43.98
14269;BME280;7218;51.480;7.006;2022-07-29T00:20:48;100878.06;;;22.98;44.19
14269;BME280;7218;51.480;7.006;2022-07-29T00:23:14;100875.97;;;22.89;44.18
14269;BME280;7218;51.480;7.006;2022-07-29T00:25:42;100867.81;;;22.92;43.92
14269;BME280;7218;51.480;7.006;2022-07-29T00:28:09;100865.78;;;22.82;44.61
14269;BME280;7218;51.480;7.006;2022-07-29T00:30:35;100861.25;;;22.84;45.16
14269;BME280;7218;51.480;7.006;2022-07-29T00:33:02;100861.81;;;22.74;45.13
14269;BME280;7218;51.480;7.006;2022-07-29T00:35:28;100863.59;;;22.74;45.24
14269;BME280;7218;51.480;7.006;2022-07-29T00:38:09;100852.38;;;22.69;45.74
14269;BME280;7218;51.480;7.006;2022-07-29T00:40:36;100856.16;;;22.65;46.03
14269;BME280;7218;51.480;7.006;2022-07-29T00:43:04;100840.94;;;22.67;45.86
14269;BME280;7218;51.480;7.006;2022-07-29T00:45:30;100844.16;;;22.58;45.56
14269;BME280;7218;51.480;7.006;2022-07-29T00:47:57;100840.66;;;22.57;45.92
14269;BME280;7218;51.480;7.006;2022-07-29T00:50:24;100836.19;;;22.58;46.33
14269;BME280;7218;51.480;7.006;2022-07-29T00:52:51;100839.13;;;22.53;46.35
14269;BME280;7218;51.480;7.006;2022-07-29T00:55:18;100836.66;;;22.50;46.02
14269;BME280;7218;51.480;7.006;2022-07-29T00:57:45;100821.84;;;22.46;46.71
14269;BME280;7218;51.480;7.006;2022-07-29T01:00:17;100826.41;;;22.44;47.68
14269;BME280;7218;51.480;7.006;2022-07-29T01:02:43;100822.78;;;22.45;47.06
14269;BME280;7218;51.480;7.006;2022-07-29T01:05:10;100815.81;;;22.28;47.26
14269;BME280;7218;51.480;7.006;2022-07-29T01:07:38;100819.91;;;22.34;47.51
14269;BME280;7218;51.480;7.006;2022-07-29T01:10:07;100818.31;;;22.31;47.94
14269;BME280;7218;51.480;7.006;2022-07-29T01:12:36;100818.47;;;22.28;47.81
14269;BME280;7218;51.480;7.006;2022-07-29T01:15:05;100814.72;;;22.17;47.72
14269;BME280;7218;51.480;7.006;2022-07-29T01:17:40;100815.31;;;22.22;48.28
14269;BME280;7218;51.480;7.006;2022-07-29T01:20:13;100808.41;;;22.19;49.40
14269;BME280;7218;51.480;7.006;2022-07-29T01:23:08;100806.88;;;22.15;48.57
14269;BME280;7218;51.480;7.006;2022-07-29T01:26:04;100801.19;;;22.21;49.42
14269;BME280;7218;51.480;7.006;2022-07-29T01:28:57;100795.31;;;22.16;49.43
14269;BME280;7218;51.480;7.006;2022-07-29T01:31:30;100796.13;;;22.17;50.32
14269;BME280;7218;51.480;7.006;2022-07-29T01:34:00;100788.84;;;22.20;48.67
14269;BME280;7218;51.480;7.006;2022-07-29T01:36:32;100795.88;;;22.21;48.27
14269;BME280;7218;51.480;7.006;2022-07-29T01:39:06;100798.03;;;22.15;49.18
14269;BME280;7218;51.480;7.006;2022-07-29T01:41:36;100792.06;;;22.11;48.83
14269;BME280;7218;51.480;7.006;2022-07-29T01:44:11;100790.50;;;22.07;49.02
14269;BME280;7218;51.480;7.006;2022-07-29T01:46:41;100794.03;;;22.08;48.95
14269;BME280;7218;51.480;7.006;2022-07-29T01:49:13;100795.44;;;21.99;49.85
14269;BME280;7218;51.480;7.006;2022-07-29T01:51:44;100796.69;;;21.92;49.15
14269;BME280;7218;51.480;7.006;2022-07-29T01:54:16;100798.09;;;21.99;49.30
14269;BME280;7218;51.480;7.006;2022-07-29T01:56:47;100789.16;;;22.00;49.04
14269;BME280;7218;51.480;7.006;2022-07-29T01:59:16;100778.56;;;22.00;48.76
14269;BME280;7218;51.480;7.006;2022-07-29T02:01:45;100771.16;;;22.05;49.35
14269;BME280;7218;51.480;7.006;2022-07-29T02:04:14;100775.13;;;21.98;50.55
14269;BME280;7218;51.480;7.006;2022-07-29T02:06:42;100769.53;;;22.03;50.72
14269;BME280;7218;51.480;7.006;2022-07-29T02:09:12;100770.78;;;21.81;50.05
14269;BME280;7218;51.480;7.006;2022-07-29T02:11:52;100779.94;;;21.76;52.06
14269;BME280;7218;51.480;7.006;2022-07-29T02:14:22;100783.94;;;21.83;51.07
14269;BME280;7218;51.480;7.006;2022-07-29T02:16:52;100786.31;;;21.87;50.76
14269;BME280;7218;51.480;7.006;2022-07-29T02:19:21;100785.94;;;21.79;51.60
14269;BME280;7218;51.480;7.006;2022-07-29T02:21:51;100770.84;;;21.80;52.75
14269;BME280;7218;51.480;7.006;2022-07-29T02:24:20;100772.72;;;21.78;51.15
14269;BME280;7218;51.480;7.006;2022-07-29T02:26:49;100776.31;;;21.77;52.33
14269;BME280;7218;51.480;7.006;2022-07-29T02:29:17;100771.38;;;21.71;52.73
14269;BME280;7218;51.480;7.006;2022-07-29T02:31:48;100759.06;;;21.70;51.93
14269;BME280;7218;51.480;7.006;2022-07-29T02:34:16;100760.25;;;21.64;51.48
14269;BME280;7218;51.480;7.006;2022-07-29T02:36:45;100757.94;;;21.58;52.69
14269;BME280;7218;51.480;7.006;2022-07-29T02:39:12;100755.03;;;21.63;52.38
14269;BME280;7218;51.480;7.006;2022-07-29T02:41:43;100760.13;;;21.52;52.85
14269;BME280;7218;51.480;7.006;2022-07-29T02:44:13;100755.75;;;21.51;53.82
14269;BME280;7218;51.480;7.006;2022-07-29T02:46:45;100764.66;;;21.50;54.03
14269;BME280;7218;51.480;7.006;2022-07-29T02:49:17;100759.34;;;21.50;53.94
14269;BME280;7218;51.480;7.006;2022-07-29T02:51:53;100770.88;;;21.48;52.81
14269;BME280;7218;51.480;7.006;2022-07-29T02:54:23;100776.72;;;21.55;53.14
14269;BME280;7218;51.480;7.006;2022-07-29T02:56:53;100778.84;;;21.48;53.13
14269;BME280;7218;51.480;7.006;2022-07-29T02:59:24;100784.00;;;21.52;52.91
14269;BME280;7218;51.480;7.006;2022-07-29T03:01:52;100781.25;;;21.53;54.51
14269;BME280;7218;51.480;7.006;2022-07-29T03:04:23;100778.50;;;21.55;53.82
14269;BME280;7218;51.480;7.006;2022-07-29T03:06:52;100790.66;;;21.59;54.37
14269;BME280;7218;51.480;7.006;2022-07-29T03:09:19;100795.81;;;21.62;53.49
14269;BME280;7218;51.480;7.006;2022-07-29T03:11:47;100814.22;;;21.65;51.31
14269;BME280;7218;51.480;7.006;2022-07-29T03:14:14;100822.09;;;21.66;50.51
14269;BME280;7218;51.480;7.006;2022-07-29T03:16:41;100816.25;;;21.60;50.75
14269;BME280;7218;51.480;7.006;2022-07-29T03:19:08;100813.28;;;21.50;51.58
14269;BME280;7218;51.480;7.006;2022-07-29T03:21:36;100810.78;;;21.47;52.00
14269;BME280;7218;51.480;7.006;2022-07-29T03:24:03;100820.97;;;21.55;52.30
14269;BME280;7218;51.480;7.006;2022-07-29T03:26:29;100821.56;;;21.60;51.19
14269;BME280;7218;51.480;7.006;2022-07-29T03:28:56;100820.91;;;21.56;51.24
14269;BME280;7218;51.480;7.006;2022-07-29T03:31:22;100814.66;;;21.41;52.09
14269;BME280;7218;51.480;7.006;2022-07-29T03:33:48;100794.50;;;21.37;52.61
14269;BME280;7218;51.480;7.006;2022-07-29T03:36:15;100801.88;;;21.48;52.18
14269;BME280;7218;51.480;7.006;2022-07-29T03:38:43;100803.66;;;21.47;51.66
14269;BME280;7218;51.480;7.006;2022-07-29T03:41:12;100803.84;;;21.44;52.04
14269;BME280;7218;51.480;7.006;2022-07-29T03:43:41;100805.97;;;21.38;52.50
14269;BME280;7218;51.480;7.006;2022-07-29T03:46:09;100799.47;;;21.28;53.38
14269;BME280;7218;51.480;7.006;2022-07-29T03:48:38;100802.91;;;21.30;53.97
14269;BME280;7218;51.480;7.006;2022-07-29T03:51:06;100812.66;;;21.29;53.89
14269;BME280;7218;51.480;7.006;2022-07-29T03:53:32;100826.09;;;21.42;52.94
14269;BME280;7218;51.480;7.006;2022-07-29T03:56:02;100828.06;;;21.38;53.45
14269;BME280;7218;51.480;7.006;2022-07-29T03:58:30;100830.47;;;21.43;54.26
14269;BME280;7218;51.480;7.006;2022-07-29T04:00:58;100832.03;;;21.31;53.49
14269;BME280;7218;51.480;7.006;2022-07-29T04:03:24;100833.22;;;21.41;53.56
14269;BME280;7218;51.480;7.006;2022-07-29T04:05:58;100847.34;;;21.09;53.89
14269;BME280;7218;51.480;7.006;2022-07-29T04:08:25;100853.63;;;21.24;53.72
14269;BME280;7218;51.480;7.006;2022-07-29T04:10:51;100860.31;;;20.98;54.40
14269;BME280;7218;51.480;7.006;2022-07-29T04:13:19;100869.06;;;21.00;54.45
14269;BME280;7218;51.480;7.006;2022-07-29T04:15:46;100877.94;;;20.99;54.64
14269;BME280;7218;51.480;7.006;2022-07-29T04:18:12;100877.50;;;20.91;55.24
14269;BME280;7218;51.480;7.006;2022-07-29T04:20:39;100869.69;;;20.88;55.49
14269;BME280;7218;51.480;7.006;2022-07-29T04:23:05;100872.00;;;20.94;55.26
14269;BME280;7218;51.480;7.006;2022-07-29T04:25:32;100875.34;;;20.82;55.62
14269;BME280;7218;51.480;7.006;2022-07-29T04:27:58;100876.63;;;20.90;55.05
14269;BME280;7218;51.480;7.006;2022-07-29T04:30:30;100863.19;;;20.93;54.79
14269;BME280;7218;51.480;7.006;2022-07-29T04:32:56;100862.34;;;20.93;55.86
14269;BME280;7218;51.480;7.006;2022-07-29T04:35:23;100865.25;;;20.88;55.59
14269;BME280;7218;51.480;7.006;2022-07-29T04:37:50;100867.50;;;20.96;55.12
14269;BME280;7218;51.480;7.006;2022-07-29T04:40:17;100863.56;;;21.03;54.75
14269;BME280;7218;51.480;7.006;2022-07-29T04:42:43;100859.78;;;20.91;55.45
14269;BME280;7218;51.480;7.006;2022-07-29T04:45:09;100862.63;;;21.04;55.51
14269;BME280;7218;51.480;7.006;2022-07-29T04:47:37;100863.44;;;21.06;55.91
14269;BME280;7218;51.480;7.006;2022-07-29T04:50:05;100855.78;;;21.00;56.06
14269;BME280;7218;51.480;7.006;2022-07-29T04:52:32;100854.50;;;20.91;56.47
14269;BME280;7218;51.480;7.006;2022-07-29T04:54:59;100840.28;;;20.92;56.10
14269;BME280;7218;51.480;7.006;2022-07-29T04:57:26;100840.06;;;20.97;56.68
14269;BME280;7218;51.480;7.006;2022-07-29T04:59:52;100849.38;;;21.04;56.58
14269;BME280;7218;51.480;7.006;2022-07-29T05:02:19;100850.25;;;21.04;58.02
14269;BME280;7218;51.480;7.006;2022-07-29T05:04:48;100838.28;;;21.13;57.27
14269;BME280;7218;51.480;7.006;2022-07-29T05:07:15;100835.94;;;21.07;56.83
14269;BME280;7218;51.480;7.006;2022-07-29T05:09:43;100827.97;;;21.07;56.76
14269;BME280;7218;51.480;7.006;2022-07-29T05:12:13;100828.94;;;21.06;57.23
14269;BME280;7218;51.480;7.006;2022-07-29T05:14:39;100830.38;;;20.96;57.83
14269;BME280;7218;51.480;7.006;2022-07-29T05:17:06;100829.28;;;21.00;57.95
14269;BME280;7218;51.480;7.006;2022-07-29T05:19:33;100838.00;;;21.02;58.15
14269;BME280;7218;51.480;7.006;2022-07-29T05:22:01;100835.59;;;21.15;58.35
14269;BME280;7218;51.480;7.006;2022-07-29T05:24:27;100836.63;;;20.95;58.06
14269;BME280;7218;51.480;7.006;2022-07-29T05:26:53;100841.31;;;20.90;60.04
14269;BME280;7218;51.480;7.006;2022-07-29T05:29:20;100845.06;;;20.86;58.92
14269;BME280;7218;51.480;7.006;2022-07-29T05:31:46;100847.16;;;20.96;59.06
14269;BME280;7218;51.480;7.006;2022-07-29T05:34:13;100844.66;;;20.93;58.94
14269;BME280;7218;51.480;7.006;2022-07-29T05:36:40;100857.78;;;21.12;58.50
14269;BME280;7218;51.480;7.006;2022-07-29T05:39:07;100861.25;;;21.14;57.86
14269;BME280;7218;51.480;7.006;2022-07-29T05:41:34;100863.06;;;21.12;58.02
14269;BME280;7218;51.480;7.006;2022-07-29T05:44:00;100865.72;;;21.12;57.67
14269;BME280;7218;51.480;7.006;2022-07-29T05:46:27;100851.53;;;21.13;56.68
14269;BME280;7218;51.480;7.006;2022-07-29T05:48:53;100840.91;;;21.13;58.57
14269;BME280;7218;51.480;7.006;2022-07-29T05:51:20;100829.56;;;21.11;59.97
14269;BME280;7218;51.480;7.006;2022-07-29T05:53:46;100822.06;;;21.19;63.09
14269;BME280;7218;51.480;7.006;2022-07-29T05:56:14;100822.34;;;21.30;64.05
14269;BME280;7218;51.480;7.006;2022-07-29T05:58:41;100827.22;;;21.38;64.52
14269;BME280;7218;51.480;7.006;2022-07-29T06:01:07;100838.06;;;21.33;61.08
14269;BME280;7218;51.480;7.006;2022-07-29T06:03:33;100843.34;;;21.18;60.90
14269;BME280;7218;51.480;7.006;2022-07-29T06:06:03;100846.28;;;20.96;61.74
14269;BME280;7218;51.480;7.006;2022-07-29T06:08:29;100839.88;;;21.00;62.67
14269;BME280;7218;51.480;7.006;2022-07-29T06:10:56;100833.78;;;20.98;63.53
14269;BME280;7218;51.480;7.006;2022-07-29T06:13:23;100824.59;;;21.05;63.84
14269;BME280;7218;51.480;7.006;2022-07-29T06:15:50;100817.88;;;21.15;64.13
14269;BME280;7218;51.480;7.006;2022-07-29T06:18:16;100816.56;;;21.07;62.43
14269;BME280;7218;51.480;7.006;2022-07-29T06:20:43;100811.06;;;21.10;65.02
14269;BME280;7218;51.480;7.006;2022-07-29T06:23:09;100798.19;;;21.19;65.47
14269;BME280;7218;51.480;7.006;2022-07-29T06:25:36;100780.91;;;21.28;67.42
14269;BME280;7218;51.480;7.006;2022-07-29T06:28:03;100785.53;;;21.24;67.68
14269;BME280;7218;51.480;7.006;2022-07-29T06:30:31;100800.91;;;21.18;67.65
14269;BME280;7218;51.480;7.006;2022-07-29T06:32:57;100823.59;;;21.23;71.86
14269;BME280;7218;51.480;7.006;2022-07-29T06:35:25;100840.63;;;21.19;68.08
14269;BME280;7218;51.480;7.006;2022-07-29T06:37:51;100854.31;;;20.94;64.76
14269;BME280;7218;51.480;7.006;2022-07-29T06:40:18;100853.22;;;20.98;65.11
14269;BME280;7218;51.480;7.006;2022-07-29T06:43:02;100850.63;;;21.14;69.51
14269;BME280;7218;51.480;7.006;2022-07-29T06:45:28;100846.91;;;21.34;69.09
14269;BME280;7218;51.480;7.006;2022-07-29T06:47:56;100846.91;;;21.50;68.92
14269;BME280;7218;51.480;7.006;2022-07-29T06:50:23;100845.88;;;21.52;68.76
14269;BME280;7218;51.480;7.006;2022-07-29T06:52:49;100857.00;;;21.74;67.80
14269;BME280;7218;51.480;7.006;2022-07-29T06:55:16;100854.28;;;21.76;67.75
14269;BME280;7218;51.480;7.006;2022-07-29T06:57:44;100851.09;;;21.54;64.84
14269;BME280;7218;51.480;7.006;2022-07-29T07:00:12;100856.50;;;21.52;64.66
14269;BME280;7218;51.480;7.006;2022-07-29T07:02:39;100861.38;;;21.60;65.65
14269;BME280;7218;51.480;7.006;2022-07-29T07:05:07;100867.38;;;21.63;65.70
14269;BME280;7218;51.480;7.006;2022-07-29T07:07:34;100866.97;;;21.71;65.36
14269;BME280;7218;51.480;7.006;2022-07-29T07:10:00;100864.72;;;21.79;64.58
14269;BME280;7218;51.480;7.006;2022-07-29T07:12:27;100865.25;;;21.85;65.90
14269;BME280;7218;51.480;7.006;2022-07-29T07:14:53;100871.78;;;21.96;66.77
14269;BME280;7218;51.480;7.006;2022-07-29T07:17:20;100872.25;;;22.02;66.96
14269;BME280;7218;51.480;7.006;2022-07-29T07:19:46;100877.75;;;21.99;65.43
14269;BME280;7218;51.480;7.006;2022-07-29T07:22:14;100876.28;;;22.09;65.94
14269;BME280;7218;51.480;7.006;2022-07-29T07:24:40;100884.44;;;22.06;64.65
14269;BME280;7218;51.480;7.006;2022-07-29T07:27:07;100886.78;;;21.97;64.41
14269;BME280;7218;51.480;7.006;2022-07-29T07:29:33;100884.94;;;21.97;64.90
14269;BME280;7218;51.480;7.006;2022-07-29T07:32:00;100892.84;;;21.99;65.34
14269;BME280;7218;51.480;7.006;2022-07-29T07:34:27;100898.22;;;21.97;65.81
14269;BME280;7218;51.480;7.006;2022-07-29T07:36:53;100900.34;;;21.90;63.80
14269;BME280;7218;51.480;7.006;2022-07-29T07:39:21;100908.03;;;21.97;63.30
14269;BME280;7218;51.480;7.006;2022-07-29T07:41:48;100899.31;;;21.93;65.25
14269;BME280;7218;51.480;7.006;2022-07-29T07:44:14;100895.06;;;22.06;65.50
14269;BME280;7218;51.480;7.006;2022-07-29T07:46:41;100901.56;;;22.16;65.72
14269;BME280;7218;51.480;7.006;2022-07-29T07:49:07;100909.69;;;22.13;63.72
14269;BME280;7218;51.480;7.006;2022-07-29T07:51:33;100907.22;;;22.10;63.53
14269;BME280;7218;51.480;7.006;2022-07-29T07:54:00;100907.72;;;22.17;63.42
14269;BME280;7218;51.480;7.006;2022-07-29T07:56:28;100908.41;;;22.20;66.13
14269;BME280;7218;51.480;7.006;2022-07-29T07:58:54;100909.88;;;22.26;64.84
14269;BME280;7218;51.480;7.006;2022-07-29T08:01:21;100905.81;;;22.35;65.75
14269;BME280;7218;51.480;7.006;2022-07-29T08:03:48;100914.50;;;22.52;65.96
14269;BME280;7218;51.480;7.006;2022-07-29T08:06:14;100918.38;;;22.47;61.99
14269;BME280;7218;51.480;7.006;2022-07-29T08:08:41;100916.50;;;22.49;62.80
14269;BME280;7218;51.480;7.006;2022-07-29T08:11:07;100910.03;;;22.53;63.54
14269;BME280;7218;51.480;7.006;2022-07-29T08:13:36;100912.00;;;22.65;64.80
14269;BME280;7218;51.480;7.006;2022-07-29T08:16:03;100916.88;;;22.57;63.14
14269;BME280;7218;51.480;7.006;2022-07-29T08:18:38;100911.94;;;22.51;64.27
14269;BME280;7218;51.480;7.006;2022-07-29T08:21:05;100915.00;;;22.59;65.59
14269;BME280;7218;51.480;7.006;2022-07-29T08:23:32;100919.97;;;22.65;64.24
14269;BME280;7218;51.480;7.006;2022-07-29T08:26:04;100921.03;;;22.47;62.06
14269;BME280;7218;51.480;7.006;2022-07-29T08:28:30;100913.25;;;22.44;65.00
14269;BME280;7218;51.480;7.006;2022-07-29T08:30:58;100914.53;;;22.37;62.31
14269;BME280;7218;51.480;7.006;2022-07-29T08:33:24;100910.06;;;22.37;65.12
14269;BME280;7218;51.480;7.006;2022-07-29T08:35:51;100911.13;;;22.35;67.70
14269;BME280;7218;51.480;7.006;2022-07-29T08:38:17;100910.56;;;22.59;68.42
14269;BME280;7218;51.480;7.006;2022-07-29T08:40:44;100908.81;;;22.58;71.20
14269;BME280;7218;51.480;7.006;2022-07-29T08:43:11;100905.81;;;22.64;73.01
14269;BME280;7218;51.480;7.006;2022-07-29T08:45:42;100896.47;;;22.73;74.75
14269;BME280;7218;51.480;7.006;2022-07-29T08:48:11;100895.91;;;22.82;74.80
14269;BME280;7218;51.480;7.006;2022-07-29T08:50:38;100900.28;;;22.83;74.15
14269;BME280;7218;51.480;7.006;2022-07-29T08:53:07;100904.16;;;22.78;72.69
14269;BME280;7218;51.480;7.006;2022-07-29T08:55:34;100908.63;;;22.77;74.53
14269;BME280;7218;51.480;7.006;2022-07-29T08:58:01;100913.47;;;22.55;71.92
14269;BME280;7218;51.480;7.006;2022-07-29T09:00:28;100913.47;;;22.55;71.42
14269;BME280;7218;51.480;7.006;2022-07-29T09:02:57;100919.50;;;22.43;70.90
14269;BME280;7218;51.480;7.006;2022-07-29T09:05:26;100917.31;;;22.35;74.78
14269;BME280;7218;51.480;7.006;2022-07-29T09:07:53;100919.69;;;22.40;73.60
14269;BME280;7218;51.480;7.006;2022-07-29T09:10:20;100923.81;;;22.29;72.14
14269;BME280;7218;51.480;7.006;2022-07-29T09:12:47;100918.69;;;22.26;73.10
14269;BME280;7218;51.480;7.006;2022-07-29T09:15:13;100915.25;;;22.24;73.67
14269;BME280;7218;51.480;7.006;2022-07-29T09:17:41;100918.78;;;22.25;71.73
14269;BME280;7218;51.480;7.006;2022-07-29T09:20:09;100911.66;;;22.25;76.19
14269;BME280;7218;51.480;7.006;2022-07-29T09:22:37;100920.56;;;22.24;77.31
14269;BME280;7218;51.480;7.006;2022-07-29T09:25:04;100921.25;;;22.28;82.46
14269;BME280;7218;51.480;7.006;2022-07-29T09:27:31;100921.09;;;22.15;82.81
14269;BME280;7218;51.480;7.006;2022-07-29T09:30:00;100916.66;;;22.00;82.15
14269;BME280;7218;51.480;7.006;2022-07-29T09:32:26;100909.56;;;22.01;83.59
14269;BME280;7218;51.480;7.006;2022-07-29T09:35:19;100894.38;;;22.03;86.56
14269;BME280;7218;51.480;7.006;2022-07-29T09:37:48;100892.84;;;21.99;85.41
14269;BME280;7218;51.480;7.006;2022-07-29T09:40:16;100893.88;;;21.96;83.90
14269;BME280;7218;51.480;7.006;2022-07-29T09:42:45;100890.44;;;21.94;80.93
14269;BME280;7218;51.480;7.006;2022-07-29T09:45:12;100891.97;;;21.98;82.78
14269;BME280;7218;51.480;7.006;2022-07-29T09:47:44;100890.44;;;22.10;85.95
14269;BME280;7218;51.480;7.006;2022-07-29T09:50:15;100895.56;;;22.13;84.79
14269;BME280;7218;51.480;7.006;2022-07-29T09:52:45;100881.59;;;22.09;84.79
14269;BME280;7218;51.480;7.006;2022-07-29T09:55:14;100882.25;;;22.28;84.04
14269;BME280;7218;51.480;7.006;2022-07-29T09:57:40;100883.44;;;22.23;85.04
14269;BME280;7218;51.480;7.006;2022-07-29T10:00:09;100873.38;;;22.44;86.20
14269;BME280;7218;51.480;7.006;2022-07-29T10:02:38;100870.72;;;22.44;84.45
14269;BME280;7218;51.480;7.006;2022-07-29T10:05:06;100875.72;;;22.34;81.88
14269;BME280;7218;51.480;7.006;2022-07-29T10:07:46;100871.97;;;22.52;84.00
14269;BME280;7218;51.480;7.006;2022-07-29T10:10:21;100870.63;;;22.45;80.87
14269;BME280;7218;51.480;7.006;2022-07-29T10:12:50;100877.59;;;22.32;79.83
14269;BME280;7218;51.480;7.006;2022-07-29T10:15:17;100885.81;;;22.43;78.50
14269;BME280;7218;51.480;7.006;2022-07-29T10:17:44;100884.97;;;22.57;78.71
14269;BME280;7218;51.480;7.006;2022-07-29T10:20:11;100876.75;;;22.61;78.65
14269;BME280;7218;51.480;7.006;2022-07-29T10:22:38;100867.50;;;22.83;80.65
14269;BME280;7218;51.480;7.006;2022-07-29T10:25:05;100867.44;;;22.98;82.84
14269;BME280;7218;51.480;7.006;2022-07-29T10:27:34;100876.75;;;23.20;80.30
14269;BME280;7218;51.480;7.006;2022-07-29T10:30:00;100866.97;;;23.20;74.16
14269;BME280;7218;51.480;7.006;2022-07-29T10:32:37;100866.28;;;23.16;76.93
14269;BME280;7218;51.480;7.006;2022-07-29T10:35:17;100876.94;;;23.31;77.54
14269;BME280;7218;51.480;7.006;2022-07-29T10:37:56;100871.22;;;23.37;76.51
14269;BME280;7218;51.480;7.006;2022-07-29T10:40:36;100873.13;;;23.35;75.52
14269;BME280;7218;51.480;7.006;2022-07-29T10:43:32;100868.47;;;23.38;77.57
14269;BME280;7218;51.480;7.006;2022-07-29T10:46:02;100871.25;;;23.51;77.32
14269;BME280;7218;51.480;7.006;2022-07-29T10:48:29;100877.41;;;23.66;76.55
14269;BME280;7218;51.480;7.006;2022-07-29T10:50:57;100875.81;;;23.90;75.68
14269;BME280;7218;51.480;7.006;2022-07-29T10:53:45;100876.88;;;24.14;73.57
14269;BME280;7218;51.480;7.006;2022-07-29T10:56:23;100878.97;;;24.23;70.19
14269;BME280;7218;51.480;7.006;2022-07-29T10:59:25;100884.91;;;24.54;69.94
14269;BME280;7218;51.480;7.006;2022-07-29T11:01:53;100881.66;;;24.88;67.22
14269;BME280;7218;51.480;7.006;2022-07-29T11:07:23;100876.50;;;25.48;64.41
14269;BME280;7218;51.480;7.006;2022-07-29T11:10:21;100873.72;;;25.62;60.78
14269;BME280;7218;51.480;7.006;2022-07-29T11:12:47;100884.47;;;25.74;64.12
14269;BME280;7218;51.480;7.006;2022-07-29T11:15:16;100885.34;;;25.98;62.76
14269;BME280;7218;51.480;7.006;2022-07-29T11:18:06;100887.94;;;26.10;62.89
14269;BME280;7218;51.480;7.006;2022-07-29T11:20:38;100896.16;;;26.20;60.61
14269;BME280;7218;51.480;7.006;2022-07-29T11:23:22;100894.97;;;26.48;61.86
14269;BME280;7218;51.480;7.006;2022-07-29T11:26:14;100902.75;;;26.51;57.76
14269;BME280;7218;51.480;7.006;2022-07-29T11:31:37;100891.84;;;26.89;56.01
14269;BME280;7218;51.480;7.006;2022-07-29T11:34:24;100892.31;;;27.94;53.92
14269;BME280;7218;51.480;7.006;2022-07-29T11:37:22;100889.97;;;28.64;49.97
14269;BME280;7218;51.480;7.006;2022-07-29T11:40:19;100890.88;;;29.37;47.57
14269;BME280;7218;51.480;7.006;2022-07-29T11:42:47;100895.78;;;29.72;45.33
14269;BME280;7218;51.480;7.006;2022-07-29T11:45:17;100902.84;;;30.22;42.38
14269;BME280;7218;51.480;7.006;2022-07-29T11:47:50;100896.78;;;30.78;41.54
14269;BME280;7218;51.480;7.006;2022-07-29T11:50:26;100898.59;;;31.34;41.32
14269;BME280;7218;51.480;7.006;2022-07-29T11:52:53;100900.25;;;31.17;40.98
14269;BME280;7218;51.480;7.006;2022-07-29T11:55:21;100906.50;;;30.89;38.25
14269;BME280;7218;51.480;7.006;2022-07-29T11:57:50;100907.09;;;30.34;37.33
14269;BME280;7218;51.480;7.006;2022-07-29T12:00:23;100912.75;;;30.22;40.37
14269;BME280;7218;51.480;7.006;2022-07-29T12:02:52;100908.78;;;30.07;41.49
14269;BME280;7218;51.480;7.006;2022-07-29T12:05:19;100902.97;;;29.92;41.45
14269;BME280;7218;51.480;7.006;2022-07-29T12:07:47;100896.09;;;29.69;43.19
14269;BME280;7218;51.480;7.006;2022-07-29T12:10:14;100900.63;;;29.38;43.57
14269;BME280;7218;51.480;7.006;2022-07-29T12:12:40;100895.63;;;29.03;43.48
14269;BME280;7218;51.480;7.006;2022-07-29T12:15:12;100897.03;;;28.65;41.45
14269;BME280;7218;51.480;7.006;2022-07-29T12:17:38;100889.22;;;28.42;42.50
14269;BME280;7218;51.480;7.006;2022-07-29T12:20:07;100900.56;;;28.45;45.48
14269;BME280;7218;51.480;7.006;2022-07-29T12:22:36;100887.75;;;28.49;46.56
14269;BME280;7218;51.480;7.006;2022-07-29T12:25:06;100887.75;;;28.49;45.26
14269;BME280;7218;51.480;7.006;2022-07-29T12:27:33;100881.19;;;28.42;45.01
14269;BME280;7218;51.480;7.006;2022-07-29T12:30:01;100888.22;;;28.22;44.79
14269;BME280;7218;51.480;7.006;2022-07-29T12:32:33;100885.22;;;28.04;45.78
14269;BME280;7218;51.480;7.006;2022-07-29T12:35:03;100896.19;;;27.90;43.82
14269;BME280;7218;51.480;7.006;2022-07-29T12:37:32;100894.72;;;27.97;46.25
14269;BME280;7218;51.480;7.006;2022-07-29T12:39:59;100896.38;;;27.77;43.65
14269;BME280;7218;51.480;7.006;2022-07-29T12:42:26;100893.75;;;28.09;45.32
14269;BME280;7218;51.480;7.006;2022-07-29T12:44:53;100896.09;;;28.35;45.17
14269;BME280;7218;51.480;7.006;2022-07-29T12:47:20;100895.91;;;28.79;42.36
14269;BME280;7218;51.480;7.006;2022-07-29T12:49:48;100890.47;;;29.21;42.54
14269;BME280;7218;51.480;7.006;2022-07-29T12:52:25;100897.59;;;29.01;41.24
14269;BME280;7218;51.480;7.006;2022-07-29T12:54:53;100890.91;;;28.54;42.22
14269;BME280;7218;51.480;7.006;2022-07-29T12:57:19;100888.22;;;28.75;44.01
14269;BME280;7218;51.480;7.006;2022-07-29T12:59:59;100885.53;;;28.95;44.62
14269;BME280;7218;51.480;7.006;2022-07-29T13:02:26;100883.94;;;28.83;43.66
14269;BME280;7218;51.480;7.006;2022-07-29T13:04:56;100894.44;;;28.96;43.37
14269;BME280;7218;51.480;7.006;2022-07-29T13:07:24;100885.34;;;28.87;41.29
14269;BME280;7218;51.480;7.006;2022-07-29T13:09:53;100889.72;;;28.67;41.17
14269;BME280;7218;51.480;7.006;2022-07-29T13:12:20;100891.19;;;28.92;41.92
14269;BME280;7218;51.480;7.006;2022-07-29T13:14:48;100894.44;;;28.96;42.74
14269;BME280;7218;51.480;7.006;2022-07-29T13:17:16;100891.56;;;29.08;41.16